sensor_id;sensor_type;location;lat;lon;timestamp;P1;durP1;ratioP1;P2;durP2;ratioP2
76127;SDS011;64873;50.102;14.434;2023-02-15T00:01:17;49.15;;;24.55;;
76127;SDS011;64873;50.102;14.434;2023-02-15T00:03:42;43.17;;;23.90;;
76127;SDS011;64873;50.102;14.434;2023-02-15T00:06:08;48.78;;;24.50;;
76127;SDS011;64873;50.102;14.434;2023-02-15T00:08:33;53.63;;;25.02;;
76127;SDS011;64873;50.102;14.434;2023-02-15T00:11:09;49.35;;;23.92;;
76127;SDS011;64873;50.102;14.434;2023-02-15T00:13:39;43.70;;;22.75;;
76127;SDS011;64873;50.102;14.434;2023-02-15T00:16:09;52.33;;;24.83;;
76127;SDS011;64873;50.102;14.434;2023-02-15T00:18:36;50.70;;;25.52;;
76127;SDS011;64873;50.102;14.434;2023-02-15T00:21:08;45.97;;;24.45;;
76127;SDS011;64873;50.102;14.434;2023-02-15T00:26:07;43.53;;;23.08;;
76127;SDS011;64873;50.102;14.434;2023-02-15T00:28:35;45.67;;;23.63;;
76127;SDS011;64873;50.102;14.434;2023-02-15T00:31:04;44.28;;;23.98;;
76127;SDS011;64873;50.102;14.434;2023-02-15T00:33:35;44.30;;;23.67;;
76127;SDS011;64873;50.102;14.434;2023-02-15T00:36:02;50.75;;;25.80;;
76127;SDS011;64873;50.102;14.434;2023-02-15T00:38:29;50.38;;;25.17;;
76127;SDS011;64873;50.102;14.434;2023-02-15T00:40:55;51.92;;;24.30;;
76127;SDS011;64873;50.102;14.434;2023-02-15T00:43:22;51.97;;;24.60;;
76127;SDS011;64873;50.102;14.434;2023-02-15T00:45:48;45.88;;;23.50;;
76127;SDS011;64873;50.102;14.434;2023-02-15T00:48:13;45.33;;;22.75;;
76127;SDS011;64873;50.102;14.434;2023-02-15T00:50:39;50.25;;;24.92;;
76127;SDS011;64873;50.102;14.434;2023-02-15T00:53:04;50.17;;;24.55;;
76127;SDS011;64873;50.102;14.434;2023-02-15T00:55:30;50.53;;;24.02;;
76127;SDS011;64873;50.102;14.434;2023-02-15T00:57:55;47.15;;;23.73;;
76127;SDS011;64873;50.102;14.434;2023-02-15T01:00:21;45.35;;;23.25;;
76127;SDS011;64873;50.102;14.434;2023-02-15T01:02:47;46.05;;;23.42;;
76127;SDS011;64873;50.102;14.434;2023-02-15T01:05:12;46.28;;;22.15;;
76127;SDS011;64873;50.102;14.434;2023-02-15T01:07:38;45.78;;;22.85;;
76127;SDS011;64873;50.102;14.434;2023-02-15T01:10:04;49.10;;;23.10;;
76127;SDS011;64873;50.102;14.434;2023-02-15T01:12:31;45.83;;;23.15;;
76127;SDS011;64873;50.102;14.434;2023-02-15T01:14:57;44.83;;;22.60;;
76127;SDS011;64873;50.102;14.434;2023-02-15T01:17:23;47.47;;;23.35;;
76127;SDS011;64873;50.102;14.434;2023-02-15T01:19:48;45.17;;;22.63;;
76127;SDS011;64873;50.102;14.434;2023-02-15T01:22:13;45.38;;;22.77;;
76127;SDS011;64873;50.102;14.434;2023-02-15T01:24:39;44.33;;;22.17;;
76127;SDS011;64873;50.102;14.434;2023-02-15T01:27:04;47.83;;;23.88;;
76127;SDS011;64873;50.102;14.434;2023-02-15T01:29:30;45.72;;;22.70;;
76127;SDS011;64873;50.102;14.434;2023-02-15T01:31:55;48.88;;;23.95;;
76127;SDS011;64873;50.102;14.434;2023-02-15T01:34:21;48.15;;;24.17;;
76127;SDS011;64873;50.102;14.434;2023-02-15T01:36:46;41.08;;;22.20;;
76127;SDS011;64873;50.102;14.434;2023-02-15T01:39:12;46.65;;;23.15;;
76127;SDS011;64873;50.102;14.434;2023-02-15T01:41:37;44.13;;;22.08;;
76127;SDS011;64873;50.102;14.434;2023-02-15T01:44:03;41.90;;;21.00;;
76127;SDS011;64873;50.102;14.434;2023-02-15T01:46:50;45.92;;;23.35;;
76127;SDS011;64873;50.102;14.434;2023-02-15T01:49:18;53.22;;;24.60;;
76127;SDS011;64873;50.102;14.434;2023-02-15T01:51:48;45.28;;;22.80;;
76127;SDS011;64873;50.102;14.434;2023-02-15T01:56:49;45.05;;;22.88;;
76127;SDS011;64873;50.102;14.434;2023-02-15T01:59:16;44.58;;;21.88;;
76127;SDS011;64873;50.102;14.434;2023-02-15T02:01:46;39.15;;;20.45;;
76127;SDS011;64873;50.102;14.434;2023-02-15T02:04:16;46.67;;;21.40;;
76127;SDS011;64873;50.102;14.434;2023-02-15T02:06:48;45.15;;;22.40;;
76127;SDS011;64873;50.102;14.434;2023-02-15T02:09:15;45.58;;;21.63;;
76127;SDS011;64873;50.102;14.434;2023-02-15T02:11:40;46.22;;;20.80;;
76127;SDS011;64873;50.102;14.434;2023-02-15T02:14:08;45.13;;;21.35;;
76127;SDS011;64873;50.102;14.434;2023-02-15T02:27:43;42.28;;;20.73;;
76127;SDS011;64873;50.102;14.434;2023-02-15T02:30:31;44.85;;;21.25;;
76127;SDS011;64873;50.102;14.434;2023-02-15T02:38:37;41.90;;;20.80;;
76127;SDS011;64873;50.102;14.434;2023-02-15T02:43:51;47.17;;;21.40;;
76127;SDS011;64873;50.102;14.434;2023-02-15T02:49:15;45.38;;;22.55;;
76127;SDS011;64873;50.102;14.434;2023-02-15T02:51:40;47.03;;;21.80;;
76127;SDS011;64873;50.102;14.434;2023-02-15T02:54:06;46.78;;;22.50;;
76127;SDS011;64873;50.102;14.434;2023-02-15T02:59:16;44.42;;;22.25;;
76127;SDS011;64873;50.102;14.434;2023-02-15T03:01:50;47.08;;;22.33;;
76127;SDS011;64873;50.102;14.434;2023-02-15T03:04:23;43.78;;;20.92;;
76127;SDS011;64873;50.102;14.434;2023-02-15T03:07:03;48.45;;;22.75;;
76127;SDS011;64873;50.102;14.434;2023-02-15T03:09:36;44.17;;;21.45;;
76127;SDS011;64873;50.102;14.434;2023-02-15T03:12:11;47.20;;;22.80;;
76127;SDS011;64873;50.102;14.434;2023-02-15T03:14:46;49.50;;;23.48;;
76127;SDS011;64873;50.102;14.434;2023-02-15T03:17:17;42.95;;;21.73;;
76127;SDS011;64873;50.102;14.434;2023-02-15T03:19:45;50.75;;;21.50;;
76127;SDS011;64873;50.102;14.434;2023-02-15T03:22:18;49.40;;;22.83;;
76127;SDS011;64873;50.102;14.434;2023-02-15T03:27:22;44.42;;;22.15;;
76127;SDS011;64873;50.102;14.434;2023-02-15T03:29:52;45.08;;;21.58;;
76127;SDS011;64873;50.102;14.434;2023-02-15T03:32:21;52.40;;;22.38;;
76127;SDS011;64873;50.102;14.434;2023-02-15T03:34:51;50.35;;;22.63;;
76127;SDS011;64873;50.102;14.434;2023-02-15T03:37:23;51.40;;;23.88;;
76127;SDS011;64873;50.102;14.434;2023-02-15T03:39:54;46.65;;;23.10;;
76127;SDS011;64873;50.102;14.434;2023-02-15T03:42:45;52.72;;;24.83;;
76127;SDS011;64873;50.102;14.434;2023-02-15T03:45:17;52.45;;;24.52;;
76127;SDS011;64873;50.102;14.434;2023-02-15T03:47:50;49.42;;;24.00;;
76127;SDS011;64873;50.102;14.434;2023-02-15T03:50:29;51.22;;;23.08;;
76127;SDS011;64873;50.102;14.434;2023-02-15T03:53:17;50.03;;;22.38;;
76127;SDS011;64873;50.102;14.434;2023-02-15T03:55:49;51.45;;;24.40;;
76127;SDS011;64873;50.102;14.434;2023-02-15T03:58:18;44.25;;;20.90;;
76127;SDS011;64873;50.102;14.434;2023-02-15T04:01:03;53.55;;;23.80;;
76127;SDS011;64873;50.102;14.434;2023-02-15T04:04:01;51.03;;;23.38;;
76127;SDS011;64873;50.102;14.434;2023-02-15T04:06:32;51.13;;;22.67;;
76127;SDS011;64873;50.102;14.434;2023-02-15T04:08:58;51.95;;;24.65;;
76127;SDS011;64873;50.102;14.434;2023-02-15T04:11:42;46.47;;;22.65;;
76127;SDS011;64873;50.102;14.434;2023-02-15T04:14:07;53.88;;;23.92;;
76127;SDS011;64873;50.102;14.434;2023-02-15T04:16:51;50.63;;;22.63;;
76127;SDS011;64873;50.102;14.434;2023-02-15T04:19:17;50.83;;;22.67;;
76127;SDS011;64873;50.102;14.434;2023-02-15T04:22:01;46.75;;;22.17;;
76127;SDS011;64873;50.102;14.434;2023-02-15T04:24:44;53.60;;;24.10;;
76127;SDS011;64873;50.102;14.434;2023-02-15T04:27:28;53.17;;;24.00;;
76127;SDS011;64873;50.102;14.434;2023-02-15T04:29:56;54.72;;;23.88;;
76127;SDS011;64873;50.102;14.434;2023-02-15T04:32:22;48.83;;;22.55;;
76127;SDS011;64873;50.102;14.434;2023-02-15T04:34:48;56.28;;;24.92;;
76127;SDS011;64873;50.102;14.434;2023-02-15T04:37:13;53.40;;;24.25;;
76127;SDS011;64873;50.102;14.434;2023-02-15T04:39:39;50.33;;;24.23;;
76127;SDS011;64873;50.102;14.434;2023-02-15T04:42:04;56.90;;;26.27;;
76127;SDS011;64873;50.102;14.434;2023-02-15T04:44:29;61.03;;;26.02;;
76127;SDS011;64873;50.102;14.434;2023-02-15T04:46:55;60.20;;;26.90;;
76127;SDS011;64873;50.102;14.434;2023-02-15T04:49:20;62.10;;;26.10;;
76127;SDS011;64873;50.102;14.434;2023-02-15T04:51:46;59.78;;;26.70;;
76127;SDS011;64873;50.102;14.434;2023-02-15T04:54:11;63.83;;;28.27;;
76127;SDS011;64873;50.102;14.434;2023-02-15T04:56:37;59.78;;;25.92;;
76127;SDS011;64873;50.102;14.434;2023-02-15T04:59:02;62.90;;;27.63;;
76127;SDS011;64873;50.102;14.434;2023-02-15T05:01:28;60.65;;;26.20;;
76127;SDS011;64873;50.102;14.434;2023-02-15T05:03:54;62.90;;;27.17;;
76127;SDS011;64873;50.102;14.434;2023-02-15T05:06:19;58.38;;;24.80;;
76127;SDS011;64873;50.102;14.434;2023-02-15T05:08:45;64.75;;;27.98;;
76127;SDS011;64873;50.102;14.434;2023-02-15T05:11:10;56.78;;;25.92;;
76127;SDS011;64873;50.102;14.434;2023-02-15T05:13:36;60.20;;;25.13;;
76127;SDS011;64873;50.102;14.434;2023-02-15T05:16:01;64.70;;;28.08;;
76127;SDS011;64873;50.102;14.434;2023-02-15T05:18:27;58.20;;;26.13;;
76127;SDS011;64873;50.102;14.434;2023-02-15T05:20:53;61.30;;;26.10;;
76127;SDS011;64873;50.102;14.434;2023-02-15T05:23:18;56.85;;;23.00;;
76127;SDS011;64873;50.102;14.434;2023-02-15T05:25:47;59.28;;;24.52;;
76127;SDS011;64873;50.102;14.434;2023-02-15T05:28:32;61.17;;;25.90;;
76127;SDS011;64873;50.102;14.434;2023-02-15T05:31:02;57.80;;;23.58;;
76127;SDS011;64873;50.102;14.434;2023-02-15T05:33:33;53.40;;;23.50;;
76127;SDS011;64873;50.102;14.434;2023-02-15T05:36:00;51.55;;;23.30;;
76127;SDS011;64873;50.102;14.434;2023-02-15T05:38:26;53.38;;;22.80;;
76127;SDS011;64873;50.102;14.434;2023-02-15T05:40:51;55.92;;;23.27;;
76127;SDS011;64873;50.102;14.434;2023-02-15T05:43:17;57.10;;;23.77;;
76127;SDS011;64873;50.102;14.434;2023-02-15T05:45:49;54.42;;;23.95;;
76127;SDS011;64873;50.102;14.434;2023-02-15T05:48:17;56.67;;;24.60;;
76127;SDS011;64873;50.102;14.434;2023-02-15T05:50:43;60.92;;;25.23;;
76127;SDS011;64873;50.102;14.434;2023-02-15T05:53:09;53.72;;;23.10;;
76127;SDS011;64873;50.102;14.434;2023-02-15T05:55:37;53.03;;;24.05;;
76127;SDS011;64873;50.102;14.434;2023-02-15T05:58:03;55.03;;;24.15;;
76127;SDS011;64873;50.102;14.434;2023-02-15T06:00:29;68.97;;;27.33;;
76127;SDS011;64873;50.102;14.434;2023-02-15T06:02:54;64.50;;;26.92;;
76127;SDS011;64873;50.102;14.434;2023-02-15T06:05:20;60.83;;;24.10;;
76127;SDS011;64873;50.102;14.434;2023-02-15T06:07:45;54.95;;;22.45;;
76127;SDS011;64873;50.102;14.434;2023-02-15T06:10:11;57.40;;;22.85;;
76127;SDS011;64873;50.102;14.434;2023-02-15T06:12:36;58.17;;;24.50;;
76127;SDS011;64873;50.102;14.434;2023-02-15T06:15:02;55.25;;;23.73;;
76127;SDS011;64873;50.102;14.434;2023-02-15T06:17:28;57.25;;;24.15;;
76127;SDS011;64873;50.102;14.434;2023-02-15T06:19:54;52.58;;;22.50;;
76127;SDS011;64873;50.102;14.434;2023-02-15T06:22:19;54.33;;;21.90;;
76127;SDS011;64873;50.102;14.434;2023-02-15T06:24:45;46.92;;;19.95;;
76127;SDS011;64873;50.102;14.434;2023-02-15T06:27:11;52.05;;;21.83;;
76127;SDS011;64873;50.102;14.434;2023-02-15T06:29:36;52.17;;;21.30;;
76127;SDS011;64873;50.102;14.434;2023-02-15T06:32:02;50.30;;;21.42;;
76127;SDS011;64873;50.102;14.434;2023-02-15T06:34:28;55.08;;;22.55;;
76127;SDS011;64873;50.102;14.434;2023-02-15T06:36:54;47.97;;;19.42;;
76127;SDS011;64873;50.102;14.434;2023-02-15T06:39:19;48.38;;;21.35;;
76127;SDS011;64873;50.102;14.434;2023-02-15T06:41:44;51.55;;;21.85;;
76127;SDS011;64873;50.102;14.434;2023-02-15T06:44:10;52.25;;;21.05;;
76127;SDS011;64873;50.102;14.434;2023-02-15T06:46:35;54.15;;;22.35;;
76127;SDS011;64873;50.102;14.434;2023-02-15T06:49:01;56.60;;;22.75;;
76127;SDS011;64873;50.102;14.434;2023-02-15T06:51:26;53.45;;;21.20;;
76127;SDS011;64873;50.102;14.434;2023-02-15T06:53:52;49.45;;;20.52;;
76127;SDS011;64873;50.102;14.434;2023-02-15T06:56:17;52.72;;;21.05;;
76127;SDS011;64873;50.102;14.434;2023-02-15T06:58:43;48.67;;;19.60;;
76127;SDS011;64873;50.102;14.434;2023-02-15T07:01:10;57.08;;;22.17;;
76127;SDS011;64873;50.102;14.434;2023-02-15T07:03:36;48.85;;;19.65;;
76127;SDS011;64873;50.102;14.434;2023-02-15T07:06:02;51.33;;;19.88;;
76127;SDS011;64873;50.102;14.434;2023-02-15T07:08:30;45.40;;;18.60;;
76127;SDS011;64873;50.102;14.434;2023-02-15T07:10:56;51.15;;;20.08;;
76127;SDS011;64873;50.102;14.434;2023-02-15T07:13:41;48.28;;;20.50;;
76127;SDS011;64873;50.102;14.434;2023-02-15T07:16:10;53.17;;;20.38;;
76127;SDS011;64873;50.102;14.434;2023-02-15T07:18:36;56.13;;;20.13;;
76127;SDS011;64873;50.102;14.434;2023-02-15T07:21:01;51.22;;;20.50;;
76127;SDS011;64873;50.102;14.434;2023-02-15T07:23:27;46.08;;;18.33;;
76127;SDS011;64873;50.102;14.434;2023-02-15T07:25:56;49.05;;;20.30;;
76127;SDS011;64873;50.102;14.434;2023-02-15T07:28:22;45.95;;;19.13;;
76127;SDS011;64873;50.102;14.434;2023-02-15T07:30:48;48.67;;;18.83;;
76127;SDS011;64873;50.102;14.434;2023-02-15T07:33:13;53.65;;;21.80;;
76127;SDS011;64873;50.102;14.434;2023-02-15T07:35:51;61.72;;;24.35;;
76127;SDS011;64873;50.102;14.434;2023-02-15T07:38:22;57.08;;;21.52;;
76127;SDS011;64873;50.102;14.434;2023-02-15T07:40:49;56.42;;;21.33;;
76127;SDS011;64873;50.102;14.434;2023-02-15T07:43:15;58.05;;;21.38;;
76127;SDS011;64873;50.102;14.434;2023-02-15T07:45:40;56.13;;;20.55;;
76127;SDS011;64873;50.102;14.434;2023-02-15T07:48:06;50.58;;;20.85;;
76127;SDS011;64873;50.102;14.434;2023-02-15T07:50:32;59.92;;;22.05;;
76127;SDS011;64873;50.102;14.434;2023-02-15T07:52:58;59.15;;;22.15;;
76127;SDS011;64873;50.102;14.434;2023-02-15T07:55:23;51.10;;;19.95;;
76127;SDS011;64873;50.102;14.434;2023-02-15T07:57:50;47.72;;;19.25;;
76127;SDS011;64873;50.102;14.434;2023-02-15T08:00:16;57.15;;;22.10;;
76127;SDS011;64873;50.102;14.434;2023-02-15T08:02:49;56.05;;;21.52;;
76127;SDS011;64873;50.102;14.434;2023-02-15T08:05:35;53.92;;;19.55;;
76127;SDS011;64873;50.102;14.434;2023-02-15T08:08:01;59.80;;;20.70;;
76127;SDS011;64873;50.102;14.434;2023-02-15T08:10:27;50.65;;;20.85;;
76127;SDS011;64873;50.102;14.434;2023-02-15T08:13:12;47.85;;;18.95;;
76127;SDS011;64873;50.102;14.434;2023-02-15T08:15:38;46.47;;;19.33;;
76127;SDS011;64873;50.102;14.434;2023-02-15T08:18:03;50.45;;;19.27;;
76127;SDS011;64873;50.102;14.434;2023-02-15T08:20:29;48.47;;;19.13;;
76127;SDS011;64873;50.102;14.434;2023-02-15T08:22:54;53.95;;;21.15;;
76127;SDS011;64873;50.102;14.434;2023-02-15T08:25:20;51.80;;;21.15;;
76127;SDS011;64873;50.102;14.434;2023-02-15T08:27:45;53.65;;;22.02;;
76127;SDS011;64873;50.102;14.434;2023-02-15T08:30:11;56.30;;;21.27;;
76127;SDS011;64873;50.102;14.434;2023-02-15T08:32:37;50.83;;;20.00;;
76127;SDS011;64873;50.102;14.434;2023-02-15T08:35:02;51.70;;;19.13;;
76127;SDS011;64873;50.102;14.434;2023-02-15T08:37:27;51.88;;;18.95;;
76127;SDS011;64873;50.102;14.434;2023-02-15T08:39:53;45.45;;;20.30;;
76127;SDS011;64873;50.102;14.434;2023-02-15T08:42:18;50.08;;;18.77;;
76127;SDS011;64873;50.102;14.434;2023-02-15T08:44:45;42.33;;;17.27;;
76127;SDS011;64873;50.102;14.434;2023-02-15T08:47:11;39.70;;;17.70;;
76127;SDS011;64873;50.102;14.434;2023-02-15T08:49:37;37.75;;;16.42;;
76127;SDS011;64873;50.102;14.434;2023-02-15T08:52:02;42.45;;;16.88;;
76127;SDS011;64873;50.102;14.434;2023-02-15T08:54:28;50.08;;;18.60;;
76127;SDS011;64873;50.102;14.434;2023-02-15T08:56:53;44.00;;;17.33;;
76127;SDS011;64873;50.102;14.434;2023-02-15T08:59:20;46.03;;;18.75;;
76127;SDS011;64873;50.102;14.434;2023-02-15T09:01:47;43.70;;;18.27;;
76127;SDS011;64873;50.102;14.434;2023-02-15T09:04:14;45.45;;;18.50;;
76127;SDS011;64873;50.102;14.434;2023-02-15T09:06:41;47.10;;;19.27;;
76127;SDS011;64873;50.102;14.434;2023-02-15T09:09:08;45.92;;;18.13;;
76127;SDS011;64873;50.102;14.434;2023-02-15T09:11:35;45.75;;;18.67;;
76127;SDS011;64873;50.102;14.434;2023-02-15T09:14:06;51.53;;;20.58;;
76127;SDS011;64873;50.102;14.434;2023-02-15T09:16:38;62.20;;;21.65;;
76127;SDS011;64873;50.102;14.434;2023-02-15T09:19:05;62.60;;;19.80;;
76127;SDS011;64873;50.102;14.434;2023-02-15T09:21:31;57.55;;;22.02;;
76127;SDS011;64873;50.102;14.434;2023-02-15T09:23:59;50.33;;;19.88;;
76127;SDS011;64873;50.102;14.434;2023-02-15T09:26:27;53.28;;;20.90;;
76127;SDS011;64873;50.102;14.434;2023-02-15T09:28:56;60.28;;;21.23;;
76127;SDS011;64873;50.102;14.434;2023-02-15T09:31:25;53.15;;;21.02;;
76127;SDS011;64873;50.102;14.434;2023-02-15T09:33:52;51.92;;;20.50;;
76127;SDS011;64873;50.102;14.434;2023-02-15T09:36:22;48.33;;;19.38;;
76127;SDS011;64873;50.102;14.434;2023-02-15T09:38:57;54.28;;;20.15;;
76127;SDS011;64873;50.102;14.434;2023-02-15T09:57:55;49.13;;;18.77;;
76127;SDS011;64873;50.102;14.434;2023-02-15T10:00:41;46.03;;;18.63;;
76127;SDS011;64873;50.102;14.434;2023-02-15T10:05:44;44.03;;;17.70;;
76127;SDS011;64873;50.102;14.434;2023-02-15T10:11:27;39.92;;;17.58;;
76127;SDS011;64873;50.102;14.434;2023-02-15T10:26:12;47.88;;;19.77;;
76127;SDS011;64873;50.102;14.434;2023-02-15T10:31:31;40.15;;;19.10;;
76127;SDS011;64873;50.102;14.434;2023-02-15T10:34:14;45.15;;;19.05;;
76127;SDS011;64873;50.102;14.434;2023-02-15T10:36:53;48.83;;;19.17;;
76127;SDS011;64873;50.102;14.434;2023-02-15T10:42:35;47.63;;;18.52;;
76127;SDS011;64873;50.102;14.434;2023-02-15T11:06:43;41.55;;;18.05;;
76127;SDS011;64873;50.102;14.434;2023-02-15T11:09:14;38.17;;;17.15;;
76127;SDS011;64873;50.102;14.434;2023-02-15T11:11:43;42.15;;;19.05;;
76127;SDS011;64873;50.102;14.434;2023-02-15T11:16:59;41.88;;;18.00;;
76127;SDS011;64873;50.102;14.434;2023-02-15T11:19:35;39.22;;;19.02;;
76127;SDS011;64873;50.102;14.434;2023-02-15T11:22:06;46.10;;;18.50;;
76127;SDS011;64873;50.102;14.434;2023-02-15T11:24:42;48.80;;;19.83;;
76127;SDS011;64873;50.102;14.434;2023-02-15T11:27:18;44.17;;;20.08;;
76127;SDS011;64873;50.102;14.434;2023-02-15T11:32:40;48.28;;;20.88;;
76127;SDS011;64873;50.102;14.434;2023-02-15T11:42:47;45.22;;;18.60;;
76127;SDS011;64873;50.102;14.434;2023-02-15T11:45:22;43.72;;;18.92;;
76127;SDS011;64873;50.102;14.434;2023-02-15T11:47:53;43.63;;;18.52;;
76127;SDS011;64873;50.102;14.434;2023-02-15T11:50:21;45.08;;;18.85;;
76127;SDS011;64873;50.102;14.434;2023-02-15T11:52:49;49.95;;;18.60;;
76127;SDS011;64873;50.102;14.434;2023-02-15T11:55:19;42.60;;;18.23;;
76127;SDS011;64873;50.102;14.434;2023-02-15T11:57:51;46.10;;;19.85;;
76127;SDS011;64873;50.102;14.434;2023-02-15T12:00:31;53.03;;;19.70;;
76127;SDS011;64873;50.102;14.434;2023-02-15T12:03:02;43.95;;;19.30;;
76127;SDS011;64873;50.102;14.434;2023-02-15T12:05:34;44.30;;;20.67;;
76127;SDS011;64873;50.102;14.434;2023-02-15T12:08:09;48.88;;;20.17;;
76127;SDS011;64873;50.102;14.434;2023-02-15T12:10:42;40.50;;;17.35;;
76127;SDS011;64873;50.102;14.434;2023-02-15T12:13:17;38.50;;;17.95;;
76127;SDS011;64873;50.102;14.434;2023-02-15T12:15:45;37.90;;;17.25;;
76127;SDS011;64873;50.102;14.434;2023-02-15T12:21:02;46.85;;;20.35;;
76127;SDS011;64873;50.102;14.434;2023-02-15T12:23:32;46.05;;;20.38;;
76127;SDS011;64873;50.102;14.434;2023-02-15T12:25:58;44.60;;;20.73;;
76127;SDS011;64873;50.102;14.434;2023-02-15T12:28:26;45.05;;;19.38;;
76127;SDS011;64873;50.102;14.434;2023-02-15T12:30:57;42.53;;;17.58;;
76127;SDS011;64873;50.102;14.434;2023-02-15T12:35:56;39.30;;;18.13;;
76127;SDS011;64873;50.102;14.434;2023-02-15T12:38:26;39.38;;;17.35;;
76127;SDS011;64873;50.102;14.434;2023-02-15T12:41:00;40.47;;;16.48;;
76127;SDS011;64873;50.102;14.434;2023-02-15T12:43:32;49.33;;;18.67;;
76127;SDS011;64873;50.102;14.434;2023-02-15T12:46:12;39.23;;;16.47;;
76127;SDS011;64873;50.102;14.434;2023-02-15T12:48:39;36.83;;;17.17;;
76127;SDS011;64873;50.102;14.434;2023-02-15T12:51:08;39.53;;;18.40;;
76127;SDS011;64873;50.102;14.434;2023-02-15T12:53:35;36.90;;;18.13;;
76127;SDS011;64873;50.102;14.434;2023-02-15T12:56:02;41.65;;;19.48;;
76127;SDS011;64873;50.102;14.434;2023-02-15T12:58:33;38.22;;;17.13;;
76127;SDS011;64873;50.102;14.434;2023-02-15T13:01:11;40.05;;;19.73;;
76127;SDS011;64873;50.102;14.434;2023-02-15T13:03:56;39.90;;;18.85;;
76127;SDS011;64873;50.102;14.434;2023-02-15T13:06:34;39.13;;;17.75;;
76127;SDS011;64873;50.102;14.434;2023-02-15T13:09:13;39.60;;;17.80;;
76127;SDS011;64873;50.102;14.434;2023-02-15T13:11:41;35.72;;;17.45;;
76127;SDS011;64873;50.102;14.434;2023-02-15T13:16:44;41.53;;;18.20;;
76127;SDS011;64873;50.102;14.434;2023-02-15T13:19:16;40.40;;;16.85;;
76127;SDS011;64873;50.102;14.434;2023-02-15T13:21:52;35.50;;;16.55;;
76127;SDS011;64873;50.102;14.434;2023-02-15T13:24:20;33.17;;;16.10;;
76127;SDS011;64873;50.102;14.434;2023-02-15T13:26:49;32.67;;;15.93;;
76127;SDS011;64873;50.102;14.434;2023-02-15T13:29:22;41.65;;;21.30;;
76127;SDS011;64873;50.102;14.434;2023-02-15T13:31:50;35.00;;;17.80;;
76127;SDS011;64873;50.102;14.434;2023-02-15T13:34:22;38.65;;;17.17;;
76127;SDS011;64873;50.102;14.434;2023-02-15T13:37:13;50.30;;;18.20;;
76127;SDS011;64873;50.102;14.434;2023-02-15T13:39:40;37.35;;;19.33;;
76127;SDS011;64873;50.102;14.434;2023-02-15T13:47:55;33.55;;;17.33;;
76127;SDS011;64873;50.102;14.434;2023-02-15T13:56:28;44.15;;;20.27;;
76127;SDS011;64873;50.102;14.434;2023-02-15T13:59:15;38.88;;;18.15;;
76127;SDS011;64873;50.102;14.434;2023-02-15T14:07:30;39.80;;;18.30;;
76127;SDS011;64873;50.102;14.434;2023-02-15T14:10:18;38.90;;;18.27;;
76127;SDS011;64873;50.102;14.434;2023-02-15T14:21:43;44.22;;;20.48;;
76127;SDS011;64873;50.102;14.434;2023-02-15T14:24:18;45.10;;;19.42;;
76127;SDS011;64873;50.102;14.434;2023-02-15T14:27:14;39.17;;;17.65;;
76127;SDS011;64873;50.102;14.434;2023-02-15T14:30:21;38.67;;;17.92;;
76127;SDS011;64873;50.102;14.434;2023-02-15T14:32:52;35.55;;;16.92;;
76127;SDS011;64873;50.102;14.434;2023-02-15T14:35:24;36.22;;;17.25;;
76127;SDS011;64873;50.102;14.434;2023-02-15T14:40:41;33.90;;;16.75;;
76127;SDS011;64873;50.102;14.434;2023-02-15T14:48:47;36.60;;;16.90;;
76127;SDS011;64873;50.102;14.434;2023-02-15T14:54:10;39.78;;;18.55;;
76127;SDS011;64873;50.102;14.434;2023-02-15T14:59:26;35.65;;;16.98;;
76127;SDS011;64873;50.102;14.434;2023-02-15T15:02:14;33.88;;;16.30;;
76127;SDS011;64873;50.102;14.434;2023-02-15T15:07:43;41.58;;;18.15;;
76127;SDS011;64873;50.102;14.434;2023-02-15T15:12:41;35.92;;;16.90;;
76127;SDS011;64873;50.102;14.434;2023-02-15T15:15:09;41.20;;;16.92;;
76127;SDS011;64873;50.102;14.434;2023-02-15T15:20:05;32.30;;;13.93;;
76127;SDS011;64873;50.102;14.434;2023-02-15T15:22:42;36.40;;;17.55;;
76127;SDS011;64873;50.102;14.434;2023-02-15T15:27:56;37.70;;;17.33;;
76127;SDS011;64873;50.102;14.434;2023-02-15T15:41:18;46.30;;;17.27;;
76127;SDS011;64873;50.102;14.434;2023-02-15T15:49:45;33.78;;;16.75;;
76127;SDS011;64873;50.102;14.434;2023-02-15T15:52:18;40.28;;;17.08;;
76127;SDS011;64873;50.102;14.434;2023-02-15T15:54:46;36.00;;;16.65;;
76127;SDS011;64873;50.102;14.434;2023-02-15T15:57:33;36.60;;;17.92;;
76127;SDS011;64873;50.102;14.434;2023-02-15T16:00:03;42.67;;;20.00;;
76127;SDS011;64873;50.102;14.434;2023-02-15T16:02:52;35.70;;;17.75;;
76127;SDS011;64873;50.102;14.434;2023-02-15T16:05:18;36.85;;;17.55;;
76127;SDS011;64873;50.102;14.434;2023-02-15T16:07:44;46.00;;;18.88;;
76127;SDS011;64873;50.102;14.434;2023-02-15T16:10:23;40.63;;;19.25;;
76127;SDS011;64873;50.102;14.434;2023-02-15T16:12:53;40.58;;;17.55;;
76127;SDS011;64873;50.102;14.434;2023-02-15T16:15:21;34.83;;;16.73;;
76127;SDS011;64873;50.102;14.434;2023-02-15T16:17:50;40.22;;;17.45;;
76127;SDS011;64873;50.102;14.434;2023-02-15T16:20:30;36.08;;;17.83;;
76127;SDS011;64873;50.102;14.434;2023-02-15T16:23:12;41.17;;;18.85;;
76127;SDS011;64873;50.102;14.434;2023-02-15T16:28:32;71.57;;;31.75;;
76127;SDS011;64873;50.102;14.434;2023-02-15T16:31:10;70.93;;;30.75;;
76127;SDS011;64873;50.102;14.434;2023-02-15T16:33:38;74.43;;;31.73;;
76127;SDS011;64873;50.102;14.434;2023-02-15T16:36:06;74.97;;;31.38;;
76127;SDS011;64873;50.102;14.434;2023-02-15T16:41:08;76.00;;;32.35;;
76127;SDS011;64873;50.102;14.434;2023-02-15T16:43:36;69.75;;;29.08;;
76127;SDS011;64873;50.102;14.434;2023-02-15T16:46:04;72.43;;;31.70;;
76127;SDS011;64873;50.102;14.434;2023-02-15T16:48:41;75.53;;;32.17;;
76127;SDS011;64873;50.102;14.434;2023-02-15T16:51:09;77.68;;;30.17;;
76127;SDS011;64873;50.102;14.434;2023-02-15T16:53:34;77.63;;;33.20;;
76127;SDS011;64873;50.102;14.434;2023-02-15T16:56:02;79.95;;;32.65;;
76127;SDS011;64873;50.102;14.434;2023-02-15T16:58:33;72.72;;;31.17;;
76127;SDS011;64873;50.102;14.434;2023-02-15T17:01:03;72.78;;;31.33;;
76127;SDS011;64873;50.102;14.434;2023-02-15T17:03:34;74.72;;;32.13;;
76127;SDS011;64873;50.102;14.434;2023-02-15T17:06:00;79.05;;;33.13;;
76127;SDS011;64873;50.102;14.434;2023-02-15T17:08:34;80.82;;;33.17;;
76127;SDS011;64873;50.102;14.434;2023-02-15T17:11:13;76.40;;;30.75;;
76127;SDS011;64873;50.102;14.434;2023-02-15T17:14:10;74.57;;;32.20;;
76127;SDS011;64873;50.102;14.434;2023-02-15T17:19:16;76.43;;;30.80;;
76127;SDS011;64873;50.102;14.434;2023-02-15T17:21:47;71.72;;;28.48;;
76127;SDS011;64873;50.102;14.434;2023-02-15T17:24:16;79.20;;;32.88;;
76127;SDS011;64873;50.102;14.434;2023-02-15T17:27:04;79.72;;;32.78;;
76127;SDS011;64873;50.102;14.434;2023-02-15T17:29:36;82.38;;;35.90;;
76127;SDS011;64873;50.102;14.434;2023-02-15T17:32:05;72.68;;;31.88;;
76127;SDS011;64873;50.102;14.434;2023-02-15T17:34:45;83.78;;;33.38;;
76127;SDS011;64873;50.102;14.434;2023-02-15T17:37:12;80.63;;;32.58;;